createdAt,value
2022-08-01T00:00:42.799Z,6.00
2022-08-01T00:01:39.756Z,5.68
2022-08-01T00:02:39.110Z,6.15
2022-08-01T00:03:35.998Z,5.78
2022-08-01T00:04:32.690Z,6.05
2022-08-01T00:05:29.404Z,6.70
2022-08-01T00:06:26.067Z,6.75
2022-08-01T00:07:22.699Z,6.20
2022-08-01T00:08:19.379Z,6.03
2022-08-01T00:09:23.655Z,6.28
2022-08-01T00:10:21.310Z,5.30
2022-08-01T00:11:17.963Z,6.25
2022-08-01T00:12:14.641Z,6.10
2022-08-01T00:13:11.337Z,6.28
2022-08-01T00:14:07.993Z,5.68
2022-08-01T00:15:06.779Z,5.40
2022-08-01T00:16:03.561Z,5.25
2022-08-01T00:17:03.916Z,5.47
2022-08-01T00:18:03.817Z,6.10
2022-08-01T00:19:00.448Z,5.45
2022-08-01T00:19:57.107Z,6.18
2022-08-01T00:20:53.725Z,6.30
2022-08-01T00:21:51.778Z,6.43
2022-08-01T00:22:48.755Z,6.50
2022-08-01T00:23:46.570Z,6.20
2022-08-01T00:24:43.245Z,6.50
2022-08-01T00:25:39.840Z,6.30
2022-08-01T00:26:36.478Z,6.13
2022-08-01T00:27:33.409Z,6.47
2022-08-01T00:28:34.974Z,6.30
2022-08-01T00:30:09.800Z,6.78
2022-08-01T00:30:48.208Z,5.93
2022-08-01T00:31:44.809Z,5.20
2022-08-01T00:32:43.248Z,5.47
2022-08-01T00:33:40.148Z,5.47
2022-08-01T00:34:36.944Z,6.80
2022-08-01T00:35:33.837Z,7.07
2022-08-01T00:36:30.488Z,6.72
2022-08-01T00:37:27.164Z,6.88
2022-08-01T00:38:23.858Z,6.80
2022-08-01T00:39:20.520Z,6.78
2022-08-01T00:40:17.202Z,7.18
2022-08-01T00:41:13.854Z,6.22
2022-08-01T00:42:11.951Z,5.47
2022-08-01T00:43:08.759Z,6.35
2022-08-01T00:44:06.680Z,5.95
2022-08-01T00:45:03.679Z,7.07
2022-08-01T00:46:00.401Z,6.95
2022-08-01T00:46:57.053Z,7.13
2022-08-01T00:47:55.001Z,7.20
2022-08-01T00:48:52.274Z,7.00
2022-08-01T00:49:48.898Z,6.35
2022-08-01T00:50:46.803Z,7.13
2022-08-01T00:51:43.699Z,6.40
2022-08-01T00:52:41.389Z,6.55
2022-08-01T00:53:50.816Z,6.40
2022-08-01T00:54:49.185Z,6.50
2022-08-01T00:55:46.141Z,6.35
2022-08-01T00:56:43.078Z,6.35
2022-08-01T00:58:02.180Z,6.03
2022-08-01T00:58:57.760Z,7.07
2022-08-01T00:59:55.565Z,6.75
2022-08-01T01:00:54.744Z,6.72
2022-08-01T01:01:51.729Z,7.60
2022-08-01T01:02:48.962Z,6.88
2022-08-01T01:03:58.461Z,6.63
2022-08-01T01:04:55.544Z,6.70
2022-08-01T01:06:16.148Z,6.68
2022-08-01T01:07:18.480Z,6.05
2022-08-01T01:08:20.485Z,6.80
2022-08-01T01:09:25.920Z,7.00
2022-08-01T01:10:33.001Z,6.65
2022-08-01T01:11:35.467Z,6.68
2022-08-01T01:13:51.155Z,7.00
2022-08-01T01:15:08.688Z,6.60
2022-08-01T01:16:16.480Z,7.13
2022-08-01T01:17:17.396Z,7.03
2022-08-01T01:18:35.631Z,7.03
2022-08-01T01:19:39.155Z,7.00
2022-08-01T01:20:39.153Z,6.28
2022-08-01T01:21:54.341Z,6.35
2022-08-01T01:22:53.799Z,6.22
2022-08-01T01:24:25.604Z,6.13
2022-08-01T01:25:51.592Z,5.75
2022-08-01T01:27:19.293Z,5.43
2022-08-01T01:28:50.521Z,5.00
2022-08-01T01:30:00.495Z,5.70
2022-08-01T01:30:59.793Z,5.80
2022-08-01T01:32:34.760Z,6.30
2022-08-01T01:33:34.358Z,6.05
2022-08-01T01:34:34.854Z,5.63
2022-08-01T01:35:37.107Z,5.93
2022-08-01T01:36:34.935Z,5.53
2022-08-01T01:37:35.368Z,5.68
2022-08-01T01:38:37.503Z,6.15
2022-08-01T01:39:36.548Z,6.25
2022-08-01T01:40:34.256Z,5.90
2022-08-01T01:41:31.833Z,6.07
2022-08-01T01:42:29.552Z,5.80
2022-08-01T01:43:29.226Z,6.03
2022-08-01T01:44:32.072Z,5.95
2022-08-01T01:45:30.536Z,5.57
2022-08-01T01:46:28.679Z,4.30
2022-08-01T01:47:27.269Z,4.95
2022-08-01T01:48:26.061Z,5.60
2022-08-01T01:49:28.502Z,5.20
2022-08-01T01:51:25.835Z,5.05
2022-08-01T01:52:25.348Z,4.45
2022-08-01T01:53:23.953Z,4.90
2022-08-01T01:54:22.621Z,5.22
2022-08-01T01:55:22.074Z,4.60
2022-08-01T01:56:21.176Z,5.35
2022-08-01T01:57:19.452Z,4.68
2022-08-01T01:58:17.001Z,4.97
2022-08-01T01:59:14.031Z,4.65
2022-08-01T02:00:13.052Z,4.30
2022-08-01T02:01:14.769Z,4.43
2022-08-01T02:02:13.132Z,4.50
2022-08-01T02:03:12.540Z,4.63
2022-08-01T02:04:10.627Z,5.45
2022-08-01T02:05:09.639Z,4.55
2022-08-01T02:06:08.031Z,4.72
2022-08-01T02:07:06.877Z,4.05
2022-08-01T02:08:05.522Z,4.88
2022-08-01T02:09:03.675Z,3.88
2022-08-01T02:10:02.667Z,4.50
2022-08-01T02:11:19.094Z,4.45
2022-08-01T02:12:20.074Z,4.32
2022-08-01T02:13:17.461Z,4.90
2022-08-01T02:14:20.007Z,4.32
2022-08-01T02:15:18.857Z,4.70
2022-08-01T02:16:17.932Z,4.00
2022-08-01T02:17:18.237Z,4.78
2022-08-01T02:18:16.169Z,4.93
2022-08-01T02:19:13.091Z,4.70
2022-08-01T02:20:10.707Z,4.68
2022-08-01T02:21:12.891Z,5.05
2022-08-01T02:22:13.323Z,3.60
2022-08-01T02:23:14.014Z,5.30
2022-08-01T02:24:37.830Z,5.50
2022-08-01T02:27:06.023Z,4.80
2022-08-01T02:28:07.362Z,4.43
2022-08-01T02:29:09.912Z,4.80
2022-08-01T02:31:12.905Z,4.78
2022-08-01T02:32:15.475Z,4.00
2022-08-01T02:33:19.590Z,3.58
2022-08-01T02:34:19.539Z,4.90
2022-08-01T02:35:23.075Z,3.78
2022-08-01T02:36:28.933Z,4.40
2022-08-01T02:37:34.353Z,4.70
2022-08-01T02:38:41.444Z,4.53
2022-08-01T02:39:39.765Z,4.03
2022-08-01T02:40:40.170Z,3.90
2022-08-01T02:41:42.372Z,4.93
2022-08-01T02:42:42.716Z,4.45
2022-08-01T02:43:44.081Z,4.80
2022-08-01T02:44:44.102Z,4.30
2022-08-01T02:45:46.385Z,3.75
2022-08-01T02:46:50.093Z,4.70
2022-08-01T02:47:49.245Z,4.47
2022-08-01T02:48:48.930Z,4.22
2022-08-01T02:49:53.283Z,4.15
2022-08-01T02:50:53.809Z,4.35
2022-08-01T02:51:52.571Z,4.00
2022-08-01T02:52:52.212Z,4.18
2022-08-01T02:53:51.225Z,3.90
2022-08-01T02:54:50.769Z,4.40
2022-08-01T02:55:48.446Z,3.92
2022-08-01T02:56:47.410Z,3.67
2022-08-01T02:57:51.498Z,3.92
2022-08-01T02:58:50.527Z,3.70
2022-08-01T02:59:50.078Z,4.30
2022-08-01T03:00:48.567Z,3.70
2022-08-01T03:01:47.218Z,3.65
2022-08-01T03:02:49.398Z,3.20
2022-08-01T03:03:46.756Z,4.00
2022-08-01T03:04:44.987Z,3.72
2022-08-01T03:05:44.913Z,3.50
2022-08-01T03:06:45.222Z,3.38
2022-08-01T03:07:42.974Z,3.40
2022-08-01T03:08:40.603Z,3.90
2022-08-01T03:09:44.505Z,3.17
2022-08-01T03:10:43.073Z,3.97
2022-08-01T03:11:42.657Z,4.10
2022-08-01T03:12:40.829Z,3.85
2022-08-01T03:13:39.146Z,4.00
2022-08-01T03:14:39.069Z,4.07
2022-08-01T03:15:38.520Z,3.72
2022-08-01T03:16:38.352Z,3.60
2022-08-01T03:17:36.642Z,3.67
2022-08-01T03:18:34.653Z,3.85
2022-08-01T03:19:32.695Z,4.00
2022-08-01T03:20:33.290Z,3.60
2022-08-01T03:21:32.868Z,3.58
2022-08-01T03:22:31.577Z,3.33
2022-08-01T03:23:38.461Z,3.65
2022-08-01T03:24:37.035Z,3.15
2022-08-01T03:25:36.453Z,3.25
2022-08-01T03:26:36.324Z,3.80
2022-08-01T03:27:34.252Z,3.42
2022-08-01T03:28:31.810Z,3.38
2022-08-01T03:29:30.933Z,3.10
2022-08-01T03:30:28.529Z,3.17
2022-08-01T03:31:26.932Z,3.60
2022-08-01T03:32:24.598Z,3.60
2022-08-01T03:33:21.766Z,3.55
2022-08-01T03:34:19.164Z,3.58
2022-08-01T03:35:16.190Z,3.55
2022-08-01T03:36:14.716Z,3.47
2022-08-01T03:37:27.862Z,3.40
2022-08-01T03:39:28.421Z,3.08
2022-08-01T03:40:29.320Z,3.60
2022-08-01T03:41:30.026Z,3.67
2022-08-01T03:42:37.625Z,3.13
2022-08-01T03:43:39.530Z,3.97
2022-08-01T03:44:40.150Z,3.50
2022-08-01T03:45:41.341Z,3.35
2022-08-01T03:46:44.598Z,3.30
2022-08-01T03:47:44.995Z,3.53
2022-08-01T03:48:48.116Z,3.30
2022-08-01T03:49:48.282Z,2.50
2022-08-01T03:50:48.893Z,2.50
2022-08-01T03:51:50.473Z,3.25
2022-08-01T03:52:47.858Z,3.10
2022-08-01T03:53:46.478Z,2.45
2022-08-01T03:54:48.359Z,2.50
2022-08-01T03:55:45.071Z,2.72
2022-08-01T03:56:43.698Z,3.10
2022-08-01T03:57:41.265Z,3.10
2022-08-01T03:58:40.839Z,2.58
2022-08-01T03:59:38.881Z,2.63
2022-08-01T04:00:39.708Z,2.25
2022-08-01T04:01:37.914Z,2.70
2022-08-01T04:02:35.567Z,2.80
2022-08-01T04:03:33.614Z,2.63
2022-08-01T04:04:38.805Z,2.10
2022-08-01T04:05:36.434Z,3.17
2022-08-01T04:06:33.216Z,2.42
2022-08-01T04:07:32.398Z,2.92
2022-08-01T04:08:42.269Z,2.95
2022-08-01T04:09:38.952Z,2.72
2022-08-01T04:10:38.115Z,2.35
2022-08-01T04:11:35.239Z,2.38
2022-08-01T04:12:32.094Z,2.85
2022-08-01T04:13:29.351Z,2.90
2022-08-01T04:14:34.062Z,2.50
2022-08-01T04:15:30.902Z,2.70
2022-08-01T04:16:27.662Z,2.10
2022-08-01T04:17:24.348Z,2.38
2022-08-01T04:18:20.966Z,1.83
2022-08-01T04:19:17.577Z,2.00
2022-08-01T04:20:14.595Z,2.33
2022-08-01T04:21:11.604Z,2.22
2022-08-01T04:22:10.650Z,2.65
2022-08-01T04:23:08.921Z,2.85
2022-08-01T04:24:15.964Z,2.25
2022-08-01T04:25:18.517Z,2.60
2022-08-01T04:27:50.920Z,2.53
2022-08-01T04:28:39.293Z,1.92
2022-08-01T04:29:39.023Z,2.35
2022-08-01T04:30:38.904Z,2.08
2022-08-01T04:31:37.125Z,2.75
2022-08-01T04:32:37.270Z,2.40
2022-08-01T04:33:37.600Z,2.40
2022-08-01T04:34:35.163Z,2.03
2022-08-01T04:36:02.072Z,2.00
2022-08-01T04:36:52.550Z,2.38
2022-08-01T04:37:52.118Z,1.88
2022-08-01T04:38:51.793Z,2.13
2022-08-01T04:39:51.059Z,2.28
2022-08-01T04:40:49.619Z,2.30
2022-08-01T04:41:48.027Z,2.38
2022-08-01T04:42:44.714Z,2.28
2022-08-01T04:43:44.308Z,2.75
2022-08-01T04:44:41.507Z,2.30
2022-08-01T04:45:40.717Z,2.10
2022-08-01T04:46:38.770Z,1.90
2022-08-01T04:47:37.496Z,2.50
2022-08-01T04:48:37.359Z,2.08
2022-08-01T04:49:48.636Z,2.17
2022-08-01T04:50:46.650Z,1.83
2022-08-01T04:52:01.182Z,1.92
2022-08-01T04:52:57.809Z,2.00
2022-08-01T04:53:54.496Z,2.00
2022-08-01T04:54:51.098Z,1.80
2022-08-01T04:55:47.737Z,2.03
2022-08-01T04:56:44.346Z,2.22
2022-08-01T04:57:44.678Z,1.90
2022-08-01T04:58:45.129Z,2.13
2022-08-01T04:59:44.438Z,2.00
2022-08-01T05:00:41.060Z,2.38
2022-08-01T05:01:37.777Z,2.03
2022-08-01T05:02:34.501Z,1.95
2022-08-01T05:03:32.433Z,2.05
2022-08-01T05:04:30.638Z,2.10
2022-08-01T05:05:27.309Z,2.40
2022-08-01T05:06:23.977Z,2.20
2022-08-01T05:07:20.596Z,1.77
2022-08-01T05:08:17.430Z,1.80
2022-08-01T05:09:14.073Z,2.05
2022-08-01T05:10:10.742Z,2.08
2022-08-01T05:11:07.349Z,1.70
2022-08-01T05:12:06.784Z,2.28
2022-08-01T05:13:03.685Z,1.90
2022-08-01T05:14:00.331Z,2.00
2022-08-01T05:14:56.989Z,2.30
2022-08-01T05:15:53.746Z,1.95
2022-08-01T05:16:50.388Z,2.10
2022-08-01T05:17:47.852Z,2.42
2022-08-01T05:18:44.511Z,2.17
2022-08-01T05:19:44.406Z,2.00
2022-08-01T05:20:42.420Z,2.13
2022-08-01T05:21:39.189Z,2.50
2022-08-01T05:22:35.860Z,1.95
2022-08-01T05:23:42.799Z,2.20
2022-08-01T05:24:41.356Z,2.20
2022-08-01T05:25:56.705Z,2.40
2022-08-01T05:26:55.835Z,2.28
2022-08-01T05:27:52.563Z,2.67
2022-08-01T05:28:50.672Z,2.40
2022-08-01T05:29:47.331Z,2.20
2022-08-01T05:30:43.951Z,2.65
2022-08-01T05:31:40.776Z,2.45
2022-08-01T05:32:37.762Z,2.60
2022-08-01T05:33:34.466Z,2.22
2022-08-01T05:34:31.243Z,2.40
2022-08-01T05:35:49.066Z,2.33
2022-08-01T05:36:44.930Z,2.50
2022-08-01T05:37:41.564Z,2.60
2022-08-01T05:38:38.236Z,2.60
2022-08-01T05:39:34.979Z,2.20
2022-08-01T05:40:31.699Z,2.30
2022-08-01T05:41:28.409Z,2.60
2022-08-01T05:42:25.147Z,2.70
2022-08-01T05:43:24.394Z,2.70
2022-08-01T05:44:25.218Z,2.70
2022-08-01T05:45:22.041Z,2.40
2022-08-01T05:46:18.820Z,2.50
2022-08-01T05:47:15.452Z,2.50
2022-08-01T05:48:12.097Z,2.35
2022-08-01T05:49:08.963Z,2.85
2022-08-01T05:50:06.104Z,2.70
2022-08-01T05:51:03.231Z,2.20
2022-08-01T05:52:02.056Z,2.38
2022-08-01T05:52:58.797Z,2.42
2022-08-01T05:53:55.651Z,2.25
2022-08-01T05:54:52.325Z,2.38
2022-08-01T05:55:49.083Z,2.50
2022-08-01T05:56:45.714Z,2.33
2022-08-01T05:57:42.448Z,2.40
2022-08-01T05:58:39.079Z,2.83
2022-08-01T05:59:35.705Z,2.53
2022-08-01T06:00:32.459Z,2.50
2022-08-01T06:01:29.192Z,1.98
2022-08-01T06:02:26.008Z,2.10
2022-08-01T06:03:22.773Z,1.90
2022-08-01T06:04:19.398Z,2.33
2022-08-01T06:05:16.926Z,2.40
2022-08-01T06:06:15.196Z,2.15
2022-08-01T06:07:11.844Z,2.40
2022-08-01T06:08:08.562Z,2.03
2022-08-01T06:09:05.253Z,2.28
2022-08-01T06:10:04.622Z,1.92
2022-08-01T06:11:01.489Z,1.88
2022-08-01T06:11:58.674Z,2.00
2022-08-01T06:12:55.475Z,1.92
2022-08-01T06:13:52.156Z,2.00
2022-08-01T06:14:48.797Z,1.90
2022-08-01T06:15:45.437Z,2.15
2022-08-01T06:16:42.120Z,1.95
2022-08-01T06:17:40.125Z,1.80
2022-08-01T06:18:36.737Z,1.90
2022-08-01T06:19:33.469Z,1.65
2022-08-01T06:20:30.317Z,1.55
2022-08-01T06:21:26.946Z,1.95
2022-08-01T06:22:23.671Z,1.70
2022-08-01T06:23:31.825Z,1.90
2022-08-01T06:24:29.521Z,1.73
2022-08-01T06:25:26.371Z,1.92
2022-08-01T06:26:22.995Z,1.98
2022-08-01T06:27:22.410Z,1.70
2022-08-01T06:28:19.328Z,1.90
2022-08-01T06:29:16.131Z,2.05
2022-08-01T06:30:13.040Z,2.10
2022-08-01T06:31:11.144Z,1.63
2022-08-01T06:32:08.219Z,2.38
2022-08-01T06:33:05.780Z,1.90
2022-08-01T06:34:02.404Z,1.65
2022-08-01T06:34:59.046Z,1.92
2022-08-01T06:35:55.668Z,1.88
2022-08-01T06:36:52.323Z,2.00
2022-08-01T06:37:50.132Z,1.90
2022-08-01T06:38:46.788Z,1.45
2022-08-01T06:39:43.436Z,1.52
2022-08-01T06:40:40.228Z,1.52
2022-08-01T06:41:36.846Z,1.88
2022-08-01T06:42:36.484Z,2.13
2022-08-01T06:43:33.162Z,2.28
2022-08-01T06:44:29.788Z,1.65
2022-08-01T06:45:27.973Z,1.88
2022-08-01T06:46:24.619Z,1.90
2022-08-01T06:48:24.033Z,1.70
2022-08-01T06:49:20.736Z,1.73
2022-08-01T06:50:17.481Z,1.40
2022-08-01T06:51:19.099Z,2.00
2022-08-01T06:52:15.761Z,2.10
2022-08-01T06:53:12.559Z,1.65
2022-08-01T06:54:09.215Z,1.67
2022-08-01T06:55:06.448Z,2.00
2022-08-01T06:56:03.698Z,1.48
2022-08-01T06:57:00.413Z,1.90
2022-08-01T06:57:57.344Z,1.92
2022-08-01T06:58:54.124Z,1.88
2022-08-01T06:59:54.121Z,1.50
2022-08-01T07:00:55.940Z,1.48
2022-08-01T07:01:54.129Z,1.52
2022-08-01T07:02:56.797Z,1.90
2022-08-01T07:03:55.020Z,2.08
2022-08-01T07:04:51.802Z,1.73
2022-08-01T07:05:48.491Z,2.03
2022-08-01T07:06:45.175Z,1.80
2022-08-01T07:07:41.808Z,1.77
2022-08-01T07:08:38.417Z,1.70
2022-08-01T07:09:36.324Z,1.50
2022-08-01T07:10:32.940Z,1.60
2022-08-01T07:11:29.533Z,1.73
2022-08-01T07:12:26.163Z,1.88
2022-08-01T07:13:25.929Z,1.90
2022-08-01T07:14:40.877Z,1.60
2022-08-01T07:15:37.488Z,2.25
2022-08-01T07:16:34.191Z,1.73
2022-08-01T07:17:30.810Z,1.65
2022-08-01T07:18:27.486Z,1.85
2022-08-01T07:19:24.166Z,1.90
2022-08-01T07:20:20.902Z,2.00
2022-08-01T07:21:40.308Z,2.22
2022-08-01T07:22:35.365Z,1.88
2022-08-01T07:23:36.765Z,1.80
2022-08-01T07:24:33.548Z,1.95
2022-08-01T07:25:32.429Z,2.03
2022-08-01T07:26:29.138Z,2.30
2022-08-01T07:27:26.322Z,1.90
2022-08-01T07:28:23.118Z,1.70
2022-08-01T07:29:19.830Z,1.50
2022-08-01T07:30:16.498Z,2.08
2022-08-01T07:31:13.422Z,1.70
2022-08-01T07:32:10.187Z,2.00
2022-08-01T07:33:06.859Z,2.00
2022-08-01T07:34:03.807Z,1.75
2022-08-01T07:35:00.861Z,1.98
2022-08-01T07:35:57.596Z,2.03
2022-08-01T07:36:54.565Z,2.10
2022-08-01T07:37:51.338Z,1.50
2022-08-01T07:38:48.456Z,1.92
2022-08-01T07:39:45.096Z,1.90
2022-08-01T07:40:41.800Z,1.70
2022-08-01T07:41:53.042Z,2.00
2022-08-01T07:42:55.103Z,1.80
2022-08-01T07:43:57.250Z,1.70
2022-08-01T07:44:54.897Z,1.48
2022-08-01T07:45:51.608Z,1.75
2022-08-01T07:46:48.372Z,2.00
2022-08-01T07:47:45.028Z,2.17
2022-08-01T07:48:41.996Z,1.65
2022-08-01T07:49:40.598Z,1.70
2022-08-01T07:50:37.776Z,1.77
2022-08-01T07:51:34.500Z,1.40
2022-08-01T07:52:31.662Z,1.50
2022-08-01T07:53:28.458Z,1.70
2022-08-01T07:54:32.976Z,1.90
2022-08-01T07:55:30.944Z,1.80
2022-08-01T07:56:27.596Z,1.80
2022-08-01T07:57:24.884Z,1.80
2022-08-01T07:58:21.625Z,1.80
2022-08-01T07:59:26.250Z,1.70
2022-08-01T08:00:23.531Z,2.08
2022-08-01T08:01:20.839Z,1.63
2022-08-01T08:02:17.761Z,1.98
2022-08-01T08:03:14.605Z,1.52
2022-08-01T08:04:11.259Z,1.73
2022-08-01T08:05:08.475Z,1.58
2022-08-01T08:06:05.437Z,1.70
2022-08-01T08:07:02.280Z,2.22
2022-08-01T08:07:58.999Z,1.60
2022-08-01T08:08:55.714Z,1.65
2022-08-01T08:09:52.365Z,1.60
2022-08-01T08:10:49.055Z,1.75
2022-08-01T08:11:48.200Z,1.88
2022-08-01T08:12:47.057Z,2.17
2022-08-01T08:13:43.730Z,1.70
2022-08-01T08:14:40.405Z,1.70
2022-08-01T08:15:37.110Z,1.80
2022-08-01T08:16:35.133Z,1.63
2022-08-01T08:17:36.191Z,1.70
2022-08-01T08:18:33.089Z,1.70
2022-08-01T08:19:37.317Z,1.77
2022-08-01T08:20:35.482Z,1.58
2022-08-01T08:21:32.207Z,1.45
2022-08-01T08:22:29.026Z,1.77
2022-08-01T08:23:44.292Z,1.38
2022-08-01T08:24:45.486Z,1.70
2022-08-01T08:26:39.995Z,1.83
2022-08-01T08:27:37.824Z,1.60
2022-08-01T08:28:34.730Z,1.65
2022-08-01T08:29:33.484Z,1.63
2022-08-01T08:30:30.311Z,1.85
2022-08-01T08:31:52.008Z,1.80
2022-08-01T08:32:43.944Z,1.55
2022-08-01T08:33:40.559Z,1.80
2022-08-01T08:34:37.311Z,1.88
2022-08-01T08:35:47.941Z,1.15
2022-08-01T08:36:51.566Z,1.23
2022-08-01T08:37:49.190Z,1.58
2022-08-01T08:38:45.908Z,1.65
2022-08-01T08:39:42.842Z,1.45
2022-08-01T08:40:39.943Z,1.70
2022-08-01T08:41:37.773Z,2.15
2022-08-01T08:42:35.742Z,1.27
2022-08-01T08:43:32.410Z,1.63
2022-08-01T08:44:29.320Z,1.90
2022-08-01T08:45:50.317Z,1.60
2022-08-01T08:46:45.765Z,1.58
2022-08-01T08:47:44.550Z,1.80
2022-08-01T08:48:42.296Z,1.75
2022-08-01T08:49:39.360Z,1.70
2022-08-01T08:50:42.550Z,1.17
2022-08-01T08:51:42.370Z,1.65
2022-08-01T08:52:40.678Z,1.80
2022-08-01T08:53:39.395Z,1.50
2022-08-01T08:54:37.952Z,1.40
2022-08-01T08:55:34.717Z,1.55
2022-08-01T08:56:55.263Z,1.60
2022-08-01T08:57:52.664Z,1.55
2022-08-01T08:58:51.536Z,1.60
2022-08-01T08:59:49.382Z,1.20
2022-08-01T09:00:46.301Z,1.92
2022-08-01T09:01:46.493Z,1.30
2022-08-01T09:02:44.994Z,1.50
2022-08-01T09:03:42.033Z,1.48
2022-08-01T09:04:41.125Z,1.30
2022-08-01T09:05:39.513Z,1.35
2022-08-01T09:06:36.245Z,1.48
2022-08-01T09:07:32.912Z,2.00
2022-08-01T09:08:29.838Z,1.80
2022-08-01T09:09:26.499Z,1.50
2022-08-01T09:10:23.287Z,1.63
2022-08-01T09:11:23.118Z,1.83
2022-08-01T09:12:21.428Z,1.60
2022-08-01T09:13:18.441Z,1.63
2022-08-01T09:14:33.514Z,1.80
2022-08-01T09:15:48.418Z,1.73
2022-08-01T09:16:48.768Z,1.52
2022-08-01T09:17:45.875Z,1.50
2022-08-01T09:18:44.664Z,1.40
2022-08-01T09:19:42.721Z,1.63
2022-08-01T09:20:39.399Z,1.63
2022-08-01T09:21:36.155Z,1.40
2022-08-01T09:22:36.540Z,1.50
2022-08-01T09:23:34.042Z,1.23
2022-08-01T09:24:32.306Z,1.55
2022-08-01T09:25:46.013Z,1.50
2022-08-01T09:26:43.200Z,1.95
2022-08-01T09:27:44.108Z,1.75
2022-08-01T09:28:47.754Z,1.52
2022-08-01T09:29:45.670Z,1.77
2022-08-01T09:30:46.925Z,1.70
2022-08-01T09:31:47.603Z,1.70
2022-08-01T09:33:06.526Z,2.00
2022-08-01T09:34:15.926Z,1.50
2022-08-01T09:35:36.084Z,1.40
2022-08-01T09:36:56.848Z,1.55
2022-08-01T09:38:13.466Z,1.40
2022-08-01T09:39:14.891Z,1.60
2022-08-01T09:40:11.988Z,1.83
2022-08-01T09:41:08.811Z,1.60
2022-08-01T09:42:29.187Z,1.48
2022-08-01T09:43:28.334Z,1.70
2022-08-01T09:44:44.764Z,2.03
2022-08-01T09:45:45.626Z,1.67
2022-08-01T09:46:56.644Z,1.70
2022-08-01T09:47:53.311Z,1.42
2022-08-01T09:49:07.555Z,1.73
2022-08-01T09:50:11.178Z,1.25
2022-08-01T09:51:09.797Z,1.90
2022-08-01T09:52:18.210Z,1.60
2022-08-01T09:53:29.721Z,1.77
2022-08-01T09:54:33.888Z,1.75
2022-08-01T09:55:30.558Z,1.40
2022-08-01T09:56:27.646Z,1.58
2022-08-01T09:57:24.891Z,1.50
2022-08-01T09:58:21.683Z,1.45
2022-08-01T09:59:18.396Z,1.45
2022-08-01T10:00:24.393Z,1.52
2022-08-01T10:01:47.004Z,1.80
2022-08-01T10:02:44.763Z,1.70
2022-08-01T10:03:42.463Z,1.80
2022-08-01T10:04:46.802Z,1.60
2022-08-01T10:05:50.019Z,1.77
2022-08-01T10:06:55.538Z,1.90
2022-08-01T10:08:00.962Z,1.70
2022-08-01T10:08:57.646Z,1.77
2022-08-01T10:09:54.630Z,1.50
2022-08-01T10:11:12.189Z,1.67
2022-08-01T10:12:15.541Z,1.77
2022-08-01T10:13:13.105Z,1.85
2022-08-01T10:14:13.228Z,1.60
2022-08-01T10:15:18.229Z,1.50
2022-08-01T10:16:17.055Z,1.40
2022-08-01T10:17:19.849Z,1.48
2022-08-01T10:18:25.997Z,1.58
2022-08-01T10:19:25.330Z,1.60
2022-08-01T10:20:29.950Z,1.50
2022-08-01T10:21:47.578Z,1.75
2022-08-01T10:22:45.571Z,1.75
2022-08-01T10:23:42.787Z,1.50
2022-08-01T10:24:40.522Z,1.60
2022-08-01T10:25:46.700Z,1.80
2022-08-01T10:26:45.330Z,1.75
2022-08-01T10:27:46.563Z,2.10
2022-08-01T10:28:45.989Z,1.40
2022-08-01T10:30:19.541Z,1.50
2022-08-01T10:31:20.639Z,1.88
2022-08-01T10:32:28.766Z,1.80
2022-08-01T10:33:51.636Z,1.60
2022-08-01T10:34:45.219Z,1.75
2022-08-01T10:35:47.803Z,1.90
2022-08-01T10:36:46.832Z,1.42
2022-08-01T10:37:52.882Z,1.85
2022-08-01T10:38:50.427Z,1.60
2022-08-01T10:39:47.282Z,1.95
2022-08-01T10:40:44.366Z,1.80
2022-08-01T10:41:41.649Z,1.50
2022-08-01T10:42:42.251Z,1.65
2022-08-01T10:43:39.183Z,1.55
2022-08-01T10:44:39.853Z,1.52
2022-08-01T10:45:37.156Z,1.75
2022-08-01T10:46:47.856Z,2.40
2022-08-01T10:48:06.710Z,1.65
2022-08-01T10:49:07.972Z,1.77
2022-08-01T10:50:26.388Z,1.95
2022-08-01T10:51:26.901Z,1.83
2022-08-01T10:52:41.306Z,1.90
2022-08-01T10:53:47.747Z,1.60
2022-08-01T10:54:51.995Z,1.60
2022-08-01T10:55:51.020Z,1.88
2022-08-01T10:56:50.259Z,1.67
2022-08-01T10:57:52.914Z,1.60
2022-08-01T10:58:50.773Z,1.90
2022-08-01T10:59:59.308Z,1.80
2022-08-01T11:01:16.384Z,2.10
2022-08-01T11:02:27.819Z,1.23
2022-08-01T11:03:56.029Z,1.92
2022-08-01T11:05:01.949Z,1.70
2022-08-01T11:06:01.957Z,1.98
2022-08-01T11:07:09.932Z,1.60
2022-08-01T11:08:23.995Z,1.65
2022-08-01T11:09:21.857Z,1.70
2022-08-01T11:10:46.343Z,1.95
2022-08-01T11:12:08.272Z,2.00
2022-08-01T11:13:12.327Z,1.70
2022-08-01T11:14:13.977Z,1.70
2022-08-01T11:15:11.111Z,1.70
2022-08-01T11:16:28.323Z,1.60
2022-08-01T11:17:38.020Z,2.03
2022-08-01T11:18:37.612Z,1.83
2022-08-01T11:20:06.606Z,1.90
2022-08-01T11:21:56.837Z,1.90
2022-08-01T11:22:25.385Z,1.90
2022-08-01T11:23:23.351Z,1.77
2022-08-01T11:24:54.655Z,1.77
2022-08-01T11:26:06.040Z,1.75
2022-08-01T11:27:33.539Z,1.50
2022-08-01T11:28:35.545Z,1.83
2022-08-01T11:29:33.451Z,1.80
2022-08-01T11:30:30.814Z,1.60
2022-08-01T11:31:29.686Z,1.70
2022-08-01T11:32:28.147Z,1.48
2022-08-01T11:33:45.576Z,1.55
2022-08-01T11:34:56.730Z,1.70
2022-08-01T11:36:11.555Z,1.90
2022-08-01T11:37:30.626Z,1.83
2022-08-01T11:38:32.142Z,2.20
2022-08-01T11:39:29.781Z,1.83
2022-08-01T11:40:28.508Z,1.83
2022-08-01T11:41:37.624Z,1.73
2022-08-01T11:42:35.972Z,1.70
2022-08-01T11:43:32.962Z,2.10
2022-08-01T11:44:31.180Z,1.92
2022-08-01T11:45:51.318Z,1.90
2022-08-01T11:46:53.506Z,1.73
2022-08-01T11:47:51.683Z,1.60
2022-08-01T11:49:29.281Z,1.50
2022-08-01T11:50:37.157Z,2.20
2022-08-01T11:51:34.034Z,1.80
2022-08-01T11:52:37.385Z,1.50
2022-08-01T11:53:34.455Z,1.80
2022-08-01T11:54:36.939Z,2.05
2022-08-01T11:55:35.756Z,2.10
2022-08-01T11:56:32.572Z,1.73
2022-08-01T11:57:36.208Z,1.67
2022-08-01T11:58:34.711Z,2.28
2022-08-01T11:59:41.327Z,1.73
2022-08-01T12:00:58.792Z,2.00
2022-08-01T12:01:55.736Z,1.77
2022-08-01T12:02:59.933Z,2.00
2022-08-01T12:03:57.509Z,2.05
2022-08-01T12:04:59.116Z,1.88
2022-08-01T12:05:57.218Z,1.70
2022-08-01T12:06:53.894Z,1.75
2022-08-01T12:07:52.359Z,1.80
2022-08-01T12:08:49.036Z,1.60
2022-08-01T12:09:47.668Z,2.13
2022-08-01T12:10:50.963Z,2.10
2022-08-01T12:11:58.883Z,1.75
2022-08-01T12:13:00.150Z,1.85
2022-08-01T12:13:57.539Z,1.60
2022-08-01T12:14:59.269Z,1.88
2022-08-01T12:15:57.008Z,1.80
2022-08-01T12:16:55.202Z,1.67
2022-08-01T12:18:00.054Z,1.80
2022-08-01T12:18:56.781Z,1.55
2022-08-01T12:19:53.504Z,1.60
2022-08-01T12:20:56.745Z,1.60
2022-08-01T12:22:26.524Z,1.70
2022-08-01T12:23:23.172Z,1.70
2022-08-01T12:24:23.486Z,1.83
2022-08-01T12:25:20.169Z,2.13
2022-08-01T12:26:28.458Z,1.88
2022-08-01T12:27:30.969Z,1.67
2022-08-01T12:28:27.592Z,1.88
2022-08-01T12:29:47.193Z,1.58
2022-08-01T12:30:43.876Z,1.90
2022-08-01T12:31:40.482Z,1.58
2022-08-01T12:32:39.477Z,1.60
2022-08-01T12:33:36.167Z,1.60
2022-08-01T12:34:35.206Z,1.50
2022-08-01T12:35:32.733Z,1.80
2022-08-01T12:36:30.929Z,1.60
2022-08-01T12:37:27.953Z,1.80
2022-08-01T12:38:26.030Z,1.70
2022-08-01T12:39:22.806Z,1.88
2022-08-01T12:40:24.146Z,1.80
2022-08-01T12:41:21.568Z,1.60
2022-08-01T12:42:18.468Z,1.83
2022-08-01T12:43:26.748Z,1.45
2022-08-01T12:44:27.308Z,1.60
2022-08-01T12:45:30.463Z,1.67
2022-08-01T12:46:28.041Z,1.55
2022-08-01T12:47:25.357Z,1.75
2022-08-01T12:48:22.333Z,1.55
2022-08-01T12:49:19.188Z,1.42
2022-08-01T12:50:21.679Z,1.38
2022-08-01T12:52:15.967Z,1.67
2022-08-01T12:53:16.739Z,1.58
2022-08-01T12:54:13.744Z,1.83
2022-08-01T12:55:11.877Z,1.55
2022-08-01T12:56:11.409Z,1.40
2022-08-01T12:57:23.868Z,1.60
2022-08-01T12:58:21.407Z,1.33
2022-08-01T12:59:29.932Z,1.42
2022-08-01T13:00:27.342Z,1.48
2022-08-01T13:01:28.140Z,2.08
2022-08-01T13:02:33.086Z,1.80
2022-08-01T13:03:29.833Z,1.40
2022-08-01T13:04:26.482Z,1.77
2022-08-01T13:05:25.850Z,1.90
2022-08-01T13:06:22.535Z,1.50
2022-08-01T13:07:19.213Z,1.60
2022-08-01T13:08:31.007Z,1.83
2022-08-01T13:09:27.715Z,1.55
2022-08-01T13:10:31.195Z,1.70
2022-08-01T13:11:28.045Z,1.58
2022-08-01T13:12:24.987Z,1.55
2022-08-01T13:13:28.032Z,1.60
2022-08-01T13:14:29.232Z,1.80
2022-08-01T13:15:31.965Z,1.60
2022-08-01T13:16:55.911Z,1.70
2022-08-01T13:17:45.917Z,1.40
2022-08-01T13:18:51.576Z,1.77
2022-08-01T13:19:49.556Z,1.75
2022-08-01T13:20:46.250Z,1.60
2022-08-01T13:21:58.909Z,1.25
2022-08-01T13:22:55.880Z,1.70
2022-08-01T13:24:13.687Z,1.45
2022-08-01T13:25:16.081Z,1.40
2022-08-01T13:26:15.426Z,1.70
2022-08-01T13:27:24.256Z,1.50
2022-08-01T13:28:25.811Z,1.50
2022-08-01T13:29:30.549Z,1.60
2022-08-01T13:30:27.233Z,1.77
2022-08-01T13:31:34.088Z,1.65
2022-08-01T13:32:32.385Z,1.52
2022-08-01T13:33:52.345Z,1.80
2022-08-01T13:35:01.860Z,1.40
2022-08-01T13:35:58.789Z,1.60
2022-08-01T13:36:55.476Z,1.60
2022-08-01T13:37:52.163Z,1.52
2022-08-01T13:39:07.443Z,1.50
2022-08-01T13:40:04.459Z,1.75